sensor_id;sensor_type;location;lat;lon;timestamp;temperature;humidity
43627;DHT22;29217;52.586;13.442;2023-04-06T00:00:30;3.20;99.90
43627;DHT22;29217;52.586;13.442;2023-04-06T00:02:56;3.20;99.90
43627;DHT22;29217;52.586;13.442;2023-04-06T00:05:22;3.20;99.90
43627;DHT22;29217;52.586;13.442;2023-04-06T00:07:48;3.20;99.90
43627;DHT22;29217;52.586;13.442;2023-04-06T00:10:16;3.20;99.90
43627;DHT22;29217;52.586;13.442;2023-04-06T00:12:42;3.10;99.90
43627;DHT22;29217;52.586;13.442;2023-04-06T00:15:08;3.20;99.90
43627;DHT22;29217;52.586;13.442;2023-04-06T00:17:34;3.00;99.90
43627;DHT22;29217;52.586;13.442;2023-04-06T00:19:59;3.00;99.90
43627;DHT22;29217;52.586;13.442;2023-04-06T00:22:25;3.00;99.90
43627;DHT22;29217;52.586;13.442;2023-04-06T00:24:51;3.00;99.90
43627;DHT22;29217;52.586;13.442;2023-04-06T00:27:17;3.00;99.90
43627;DHT22;29217;52.586;13.442;2023-04-06T00:29:43;3.10;99.90
43627;DHT22;29217;52.586;13.442;2023-04-06T00:32:09;2.90;99.90
43627;DHT22;29217;52.586;13.442;2023-04-06T00:34:35;3.00;99.90
43627;DHT22;29217;52.586;13.442;2023-04-06T00:37:01;2.90;99.90
43627;DHT22;29217;52.586;13.442;2023-04-06T00:39:26;2.90;99.90
43627;DHT22;29217;52.586;13.442;2023-04-06T00:41:52;2.80;99.90
43627;DHT22;29217;52.586;13.442;2023-04-06T00:44:19;2.70;99.90
43627;DHT22;29217;52.586;13.442;2023-04-06T00:46:45;2.80;99.90
43627;DHT22;29217;52.586;13.442;2023-04-06T00:49:11;2.80;99.90
43627;DHT22;29217;52.586;13.442;2023-04-06T00:51:37;2.90;99.90
43627;DHT22;29217;52.586;13.442;2023-04-06T00:54:03;2.80;99.90
43627;DHT22;29217;52.586;13.442;2023-04-06T00:56:29;2.70;99.90
43627;DHT22;29217;52.586;13.442;2023-04-06T00:58:55;2.70;99.90
43627;DHT22;29217;52.586;13.442;2023-04-06T01:01:21;2.80;99.90
43627;DHT22;29217;52.586;13.442;2023-04-06T01:03:47;2.60;99.90
43627;DHT22;29217;52.586;13.442;2023-04-06T01:06:15;2.70;99.90
43627;DHT22;29217;52.586;13.442;2023-04-06T01:08:41;2.70;99.90
43627;DHT22;29217;52.586;13.442;2023-04-06T01:11:06;2.70;99.90
43627;DHT22;29217;52.586;13.442;2023-04-06T01:13:32;2.70;99.90
43627;DHT22;29217;52.586;13.442;2023-04-06T01:15:58;2.60;99.90
43627;DHT22;29217;52.586;13.442;2023-04-06T01:18:27;2.60;99.90
43627;DHT22;29217;52.586;13.442;2023-04-06T01:20:53;2.70;99.90
43627;DHT22;29217;52.586;13.442;2023-04-06T01:23:19;2.60;99.90
43627;DHT22;29217;52.586;13.442;2023-04-06T01:25:44;2.70;99.90
43627;DHT22;29217;52.586;13.442;2023-04-06T01:28:10;2.60;99.90
43627;DHT22;29217;52.586;13.442;2023-04-06T01:30:36;2.60;99.90
43627;DHT22;29217;52.586;13.442;2023-04-06T01:33:02;2.60;99.90
43627;DHT22;29217;52.586;13.442;2023-04-06T01:35:28;2.70;99.90
43627;DHT22;29217;52.586;13.442;2023-04-06T01:37:54;2.60;99.90
43627;DHT22;29217;52.586;13.442;2023-04-06T01:40:20;2.60;99.90
43627;DHT22;29217;52.586;13.442;2023-04-06T01:42:46;2.50;99.90
43627;DHT22;29217;52.586;13.442;2023-04-06T01:45:11;2.50;99.90
43627;DHT22;29217;52.586;13.442;2023-04-06T01:47:37;2.50;99.90
43627;DHT22;29217;52.586;13.442;2023-04-06T01:50:03;2.30;99.90
43627;DHT22;29217;52.586;13.442;2023-04-06T01:52:32;2.30;99.90
43627;DHT22;29217;52.586;13.442;2023-04-06T01:54:58;2.30;99.90
43627;DHT22;29217;52.586;13.442;2023-04-06T01:57:24;2.30;99.90
43627;DHT22;29217;52.586;13.442;2023-04-06T01:59:50;2.30;99.90
43627;DHT22;29217;52.586;13.442;2023-04-06T02:02:16;2.30;99.90
43627;DHT22;29217;52.586;13.442;2023-04-06T02:04:42;2.40;99.90
43627;DHT22;29217;52.586;13.442;2023-04-06T02:07:08;2.30;99.90
43627;DHT22;29217;52.586;13.442;2023-04-06T02:09:34;2.30;99.90
43627;DHT22;29217;52.586;13.442;2023-04-06T02:12:00;2.30;99.90
43627;DHT22;29217;52.586;13.442;2023-04-06T02:14:26;2.10;99.90
43627;DHT22;29217;52.586;13.442;2023-04-06T02:16:52;2.20;99.90
43627;DHT22;29217;52.586;13.442;2023-04-06T02:19:18;2.10;99.90
43627;DHT22;29217;52.586;13.442;2023-04-06T02:21:43;2.10;99.90
43627;DHT22;29217;52.586;13.442;2023-04-06T02:24:09;2.10;99.90
43627;DHT22;29217;52.586;13.442;2023-04-06T02:26:35;2.00;99.90
43627;DHT22;29217;52.586;13.442;2023-04-06T02:29:00;2.00;99.90
43627;DHT22;29217;52.586;13.442;2023-04-06T02:31:27;2.00;99.90
43627;DHT22;29217;52.586;13.442;2023-04-06T02:33:53;2.00;99.90
43627;DHT22;29217;52.586;13.442;2023-04-06T02:36:19;2.00;99.90
43627;DHT22;29217;52.586;13.442;2023-04-06T02:38:45;2.00;99.90
43627;DHT22;29217;52.586;13.442;2023-04-06T02:41:11;1.90;99.90
43627;DHT22;29217;52.586;13.442;2023-04-06T02:43:36;1.90;99.90
43627;DHT22;29217;52.586;13.442;2023-04-06T02:46:02;1.90;99.90
43627;DHT22;29217;52.586;13.442;2023-04-06T02:48:28;1.80;99.90
43627;DHT22;29217;52.586;13.442;2023-04-06T02:50:53;1.80;99.90
43627;DHT22;29217;52.586;13.442;2023-04-06T02:53:19;1.80;99.90
43627;DHT22;29217;52.586;13.442;2023-04-06T02:55:45;1.70;99.90
43627;DHT22;29217;52.586;13.442;2023-04-06T02:58:11;1.70;99.90
43627;DHT22;29217;52.586;13.442;2023-04-06T03:00:37;1.60;99.90
43627;DHT22;29217;52.586;13.442;2023-04-06T03:03:03;1.50;99.90
43627;DHT22;29217;52.586;13.442;2023-04-06T03:05:28;1.40;99.90
43627;DHT22;29217;52.586;13.442;2023-04-06T03:07:54;1.40;99.90
43627;DHT22;29217;52.586;13.442;2023-04-06T03:10:20;1.40;99.90
43627;DHT22;29217;52.586;13.442;2023-04-06T03:12:45;1.30;99.90
43627;DHT22;29217;52.586;13.442;2023-04-06T03:15:11;1.20;99.90
43627;DHT22;29217;52.586;13.442;2023-04-06T03:17:37;1.20;99.90
43627;DHT22;29217;52.586;13.442;2023-04-06T03:20:03;1.20;99.90
43627;DHT22;29217;52.586;13.442;2023-04-06T03:22:29;1.20;99.90
43627;DHT22;29217;52.586;13.442;2023-04-06T03:24:55;1.20;99.90
43627;DHT22;29217;52.586;13.442;2023-04-06T03:27:20;1.20;99.90
43627;DHT22;29217;52.586;13.442;2023-04-06T03:29:46;1.20;99.90
43627;DHT22;29217;52.586;13.442;2023-04-06T03:32:12;1.20;99.90
43627;DHT22;29217;52.586;13.442;2023-04-06T03:34:39;1.10;99.90
43627;DHT22;29217;52.586;13.442;2023-04-06T03:37:04;1.10;99.90
43627;DHT22;29217;52.586;13.442;2023-04-06T03:39:30;1.10;99.90
43627;DHT22;29217;52.586;13.442;2023-04-06T03:41:56;1.00;99.90
43627;DHT22;29217;52.586;13.442;2023-04-06T03:44:21;1.00;99.90
43627;DHT22;29217;52.586;13.442;2023-04-06T03:46:47;0.90;99.90
43627;DHT22;29217;52.586;13.442;2023-04-06T03:49:13;0.90;99.90
43627;DHT22;29217;52.586;13.442;2023-04-06T03:51:38;0.90;99.90
43627;DHT22;29217;52.586;13.442;2023-04-06T03:54:04;0.80;99.90
43627;DHT22;29217;52.586;13.442;2023-04-06T03:56:30;0.80;99.90
43627;DHT22;29217;52.586;13.442;2023-04-06T03:58:56;0.80;99.90
43627;DHT22;29217;52.586;13.442;2023-04-06T04:01:22;0.70;99.90
43627;DHT22;29217;52.586;13.442;2023-04-06T04:03:48;0.60;99.90
43627;DHT22;29217;52.586;13.442;2023-04-06T04:06:13;0.70;99.90
43627;DHT22;29217;52.586;13.442;2023-04-06T04:08:39;0.60;99.90
43627;DHT22;29217;52.586;13.442;2023-04-06T04:11:05;0.60;99.90
43627;DHT22;29217;52.586;13.442;2023-04-06T04:13:31;0.60;99.90
43627;DHT22;29217;52.586;13.442;2023-04-06T04:15:56;0.50;99.90
43627;DHT22;29217;52.586;13.442;2023-04-06T04:18:22;0.50;99.90
43627;DHT22;29217;52.586;13.442;2023-04-06T04:20:47;0.40;99.90
43627;DHT22;29217;52.586;13.442;2023-04-06T04:23:13;0.40;99.90
43627;DHT22;29217;52.586;13.442;2023-04-06T04:25:39;0.40;99.90
43627;DHT22;29217;52.586;13.442;2023-04-06T04:28:04;0.30;99.90
43627;DHT22;29217;52.586;13.442;2023-04-06T04:30:30;0.30;99.90
43627;DHT22;29217;52.586;13.442;2023-04-06T04:32:56;0.30;99.90
43627;DHT22;29217;52.586;13.442;2023-04-06T04:35:21;0.30;99.90
43627;DHT22;29217;52.586;13.442;2023-04-06T04:37:47;0.30;99.90
43627;DHT22;29217;52.586;13.442;2023-04-06T04:40:13;0.30;99.90
43627;DHT22;29217;52.586;13.442;2023-04-06T04:42:39;0.20;99.90
43627;DHT22;29217;52.586;13.442;2023-04-06T04:45:05;0.20;99.90
43627;DHT22;29217;52.586;13.442;2023-04-06T04:47:30;0.20;99.90
43627;DHT22;29217;52.586;13.442;2023-04-06T04:49:56;0.30;99.90
43627;DHT22;29217;52.586;13.442;2023-04-06T04:52:21;0.30;99.90
43627;DHT22;29217;52.586;13.442;2023-04-06T04:54:47;0.30;99.90
43627;DHT22;29217;52.586;13.442;2023-04-06T04:57:13;0.30;99.90
43627;DHT22;29217;52.586;13.442;2023-04-06T04:59:38;0.30;99.90
43627;DHT22;29217;52.586;13.442;2023-04-06T05:02:04;0.30;99.90
43627;DHT22;29217;52.586;13.442;2023-04-06T05:04:30;0.30;99.90
43627;DHT22;29217;52.586;13.442;2023-04-06T05:07:06;0.40;99.90
43627;DHT22;29217;52.586;13.442;2023-04-06T05:09:32;0.40;99.90
43627;DHT22;29217;52.586;13.442;2023-04-06T05:11:58;0.40;99.90
43627;DHT22;29217;52.586;13.442;2023-04-06T05:14:25;0.50;99.90
43627;DHT22;29217;52.586;13.442;2023-04-06T05:16:51;0.50;99.90
43627;DHT22;29217;52.586;13.442;2023-04-06T05:19:17;0.50;99.90
43627;DHT22;29217;52.586;13.442;2023-04-06T05:21:42;0.50;99.90
43627;DHT22;29217;52.586;13.442;2023-04-06T05:24:08;0.40;99.90
43627;DHT22;29217;52.586;13.442;2023-04-06T05:26:34;0.60;99.90
43627;DHT22;29217;52.586;13.442;2023-04-06T05:29:00;0.70;99.90
43627;DHT22;29217;52.586;13.442;2023-04-06T05:31:26;0.70;99.90
43627;DHT22;29217;52.586;13.442;2023-04-06T05:33:51;0.70;99.90
43627;DHT22;29217;52.586;13.442;2023-04-06T05:36:17;0.80;99.90
43627;DHT22;29217;52.586;13.442;2023-04-06T05:38:43;0.80;99.90
43627;DHT22;29217;52.586;13.442;2023-04-06T05:41:08;0.90;99.90
43627;DHT22;29217;52.586;13.442;2023-04-06T05:43:34;1.00;99.90
43627;DHT22;29217;52.586;13.442;2023-04-06T05:46:00;1.10;99.90
43627;DHT22;29217;52.586;13.442;2023-04-06T05:48:25;1.20;99.90
43627;DHT22;29217;52.586;13.442;2023-04-06T05:50:51;1.30;99.90
43627;DHT22;29217;52.586;13.442;2023-04-06T05:53:17;1.40;99.90
43627;DHT22;29217;52.586;13.442;2023-04-06T05:55:43;1.50;99.90
43627;DHT22;29217;52.586;13.442;2023-04-06T05:58:09;1.70;99.90
43627;DHT22;29217;52.586;13.442;2023-04-06T06:00:35;1.80;99.90
43627;DHT22;29217;52.586;13.442;2023-04-06T06:03:01;2.00;99.90
43627;DHT22;29217;52.586;13.442;2023-04-06T06:05:29;2.20;99.90
43627;DHT22;29217;52.586;13.442;2023-04-06T06:07:55;2.30;99.90
43627;DHT22;29217;52.586;13.442;2023-04-06T06:10:21;2.60;99.90
43627;DHT22;29217;52.586;13.442;2023-04-06T06:12:47;2.70;99.90
43627;DHT22;29217;52.586;13.442;2023-04-06T06:15:12;2.80;99.90
43627;DHT22;29217;52.586;13.442;2023-04-06T06:17:38;2.90;99.90
43627;DHT22;29217;52.586;13.442;2023-04-06T06:20:06;3.00;99.90
43627;DHT22;29217;52.586;13.442;2023-04-06T06:22:32;3.10;99.90
43627;DHT22;29217;52.586;13.442;2023-04-06T06:24:57;3.30;99.90
43627;DHT22;29217;52.586;13.442;2023-04-06T06:27:23;3.40;99.90
43627;DHT22;29217;52.586;13.442;2023-04-06T06:29:49;3.50;99.90
43627;DHT22;29217;52.586;13.442;2023-04-06T06:32:14;3.60;99.90
43627;DHT22;29217;52.586;13.442;2023-04-06T06:34:40;3.80;99.90
43627;DHT22;29217;52.586;13.442;2023-04-06T06:37:06;3.90;99.90
43627;DHT22;29217;52.586;13.442;2023-04-06T06:39:32;4.00;99.90
43627;DHT22;29217;52.586;13.442;2023-04-06T06:41:57;4.10;99.90
43627;DHT22;29217;52.586;13.442;2023-04-06T06:44:26;4.20;99.90
43627;DHT22;29217;52.586;13.442;2023-04-06T06:46:52;4.40;99.90
43627;DHT22;29217;52.586;13.442;2023-04-06T06:49:17;4.50;99.90
43627;DHT22;29217;52.586;13.442;2023-04-06T06:51:44;4.60;99.90
43627;DHT22;29217;52.586;13.442;2023-04-06T06:54:11;4.80;99.90
43627;DHT22;29217;52.586;13.442;2023-04-06T06:56:36;5.00;99.90
43627;DHT22;29217;52.586;13.442;2023-04-06T06:59:03;5.10;99.90
43627;DHT22;29217;52.586;13.442;2023-04-06T07:01:29;5.20;99.90
43627;DHT22;29217;52.586;13.442;2023-04-06T07:03:55;5.30;99.90
43627;DHT22;29217;52.586;13.442;2023-04-06T07:06:21;5.30;99.90
43627;DHT22;29217;52.586;13.442;2023-04-06T07:08:46;5.50;99.90
43627;DHT22;29217;52.586;13.442;2023-04-06T07:11:12;5.70;99.90
43627;DHT22;29217;52.586;13.442;2023-04-06T07:13:38;6.00;99.90
43627;DHT22;29217;52.586;13.442;2023-04-06T07:16:03;6.30;99.90
43627;DHT22;29217;52.586;13.442;2023-04-06T07:18:29;6.40;99.90
43627;DHT22;29217;52.586;13.442;2023-04-06T07:20:55;6.60;99.90
43627;DHT22;29217;52.586;13.442;2023-04-06T07:23:21;6.80;99.90
43627;DHT22;29217;52.586;13.442;2023-04-06T07:25:46;7.00;99.90
43627;DHT22;29217;52.586;13.442;2023-04-06T07:28:12;7.10;99.90
43627;DHT22;29217;52.586;13.442;2023-04-06T07:30:38;7.10;99.90
43627;DHT22;29217;52.586;13.442;2023-04-06T07:33:04;7.10;99.90
43627;DHT22;29217;52.586;13.442;2023-04-06T07:35:31;7.10;99.90
43627;DHT22;29217;52.586;13.442;2023-04-06T07:37:56;7.30;99.90
43627;DHT22;29217;52.586;13.442;2023-04-06T07:40:22;7.30;99.90
43627;DHT22;29217;52.586;13.442;2023-04-06T07:42:48;7.50;99.90
43627;DHT22;29217;52.586;13.442;2023-04-06T07:45:14;7.70;99.90
43627;DHT22;29217;52.586;13.442;2023-04-06T07:47:42;7.80;99.90
43627;DHT22;29217;52.586;13.442;2023-04-06T07:50:08;7.80;99.90
43627;DHT22;29217;52.586;13.442;2023-04-06T07:52:34;7.70;99.90
43627;DHT22;29217;52.586;13.442;2023-04-06T07:54:59;7.80;99.90
43627;DHT22;29217;52.586;13.442;2023-04-06T07:57:25;7.90;99.90
43627;DHT22;29217;52.586;13.442;2023-04-06T07:59:51;7.90;99.90
43627;DHT22;29217;52.586;13.442;2023-04-06T08:02:17;8.10;99.90
43627;DHT22;29217;52.586;13.442;2023-04-06T08:04:43;8.00;99.90
43627;DHT22;29217;52.586;13.442;2023-04-06T08:07:09;7.80;99.90
43627;DHT22;29217;52.586;13.442;2023-04-06T08:09:34;7.60;99.90
43627;DHT22;29217;52.586;13.442;2023-04-06T08:12:00;7.80;99.90
43627;DHT22;29217;52.586;13.442;2023-04-06T08:14:26;7.90;99.90
43627;DHT22;29217;52.586;13.442;2023-04-06T08:16:51;7.90;99.90
43627;DHT22;29217;52.586;13.442;2023-04-06T08:19:17;8.00;99.90
43627;DHT22;29217;52.586;13.442;2023-04-06T08:21:44;8.00;99.90
43627;DHT22;29217;52.586;13.442;2023-04-06T08:24:11;7.90;99.90
43627;DHT22;29217;52.586;13.442;2023-04-06T08:26:37;7.90;99.90
43627;DHT22;29217;52.586;13.442;2023-04-06T08:29:03;7.90;99.90
43627;DHT22;29217;52.586;13.442;2023-04-06T08:31:30;7.90;99.90
43627;DHT22;29217;52.586;13.442;2023-04-06T08:33:55;7.80;99.90
43627;DHT22;29217;52.586;13.442;2023-04-06T08:36:21;7.90;99.90
43627;DHT22;29217;52.586;13.442;2023-04-06T08:38:48;8.00;99.90
43627;DHT22;29217;52.586;13.442;2023-04-06T08:41:15;8.10;99.90
43627;DHT22;29217;52.586;13.442;2023-04-06T08:43:52;8.10;99.90
43627;DHT22;29217;52.586;13.442;2023-04-06T08:46:21;8.20;99.90
43627;DHT22;29217;52.586;13.442;2023-04-06T08:48:47;8.30;99.90
43627;DHT22;29217;52.586;13.442;2023-04-06T08:51:15;8.40;99.90
43627;DHT22;29217;52.586;13.442;2023-04-06T08:53:41;8.40;99.90
43627;DHT22;29217;52.586;13.442;2023-04-06T08:56:07;8.40;99.90
43627;DHT22;29217;52.586;13.442;2023-04-06T08:58:39;8.30;99.90
43627;DHT22;29217;52.586;13.442;2023-04-06T09:01:11;8.30;99.90
43627;DHT22;29217;52.586;13.442;2023-04-06T09:03:38;8.50;99.90
43627;DHT22;29217;52.586;13.442;2023-04-06T09:06:08;8.40;99.90
43627;DHT22;29217;52.586;13.442;2023-04-06T09:08:35;8.50;99.90
43627;DHT22;29217;52.586;13.442;2023-04-06T09:11:04;8.50;99.90
43627;DHT22;29217;52.586;13.442;2023-04-06T09:13:30;8.50;99.90
43627;DHT22;29217;52.586;13.442;2023-04-06T09:16:03;8.60;99.90
43627;DHT22;29217;52.586;13.442;2023-04-06T09:18:33;8.60;99.90
43627;DHT22;29217;52.586;13.442;2023-04-06T09:21:04;8.80;99.90
43627;DHT22;29217;52.586;13.442;2023-04-06T09:23:30;8.90;99.90
43627;DHT22;29217;52.586;13.442;2023-04-06T09:26:16;8.90;99.90
43627;DHT22;29217;52.586;13.442;2023-04-06T09:28:50;8.90;99.90
43627;DHT22;29217;52.586;13.442;2023-04-06T09:31:25;9.00;99.90
43627;DHT22;29217;52.586;13.442;2023-04-06T09:33:51;9.30;99.90
43627;DHT22;29217;52.586;13.442;2023-04-06T09:36:18;9.40;99.90
43627;DHT22;29217;52.586;13.442;2023-04-06T09:38:54;9.60;99.90
43627;DHT22;29217;52.586;13.442;2023-04-06T09:41:40;9.60;99.90
43627;DHT22;29217;52.586;13.442;2023-04-06T09:44:11;9.70;99.90
43627;DHT22;29217;52.586;13.442;2023-04-06T09:46:44;9.70;99.90
43627;DHT22;29217;52.586;13.442;2023-04-06T09:49:11;9.80;99.90
43627;DHT22;29217;52.586;13.442;2023-04-06T09:51:46;9.90;99.90
43627;DHT22;29217;52.586;13.442;2023-04-06T09:54:18;9.90;99.90
43627;DHT22;29217;52.586;13.442;2023-04-06T09:56:50;9.70;99.90
43627;DHT22;29217;52.586;13.442;2023-04-06T09:59:31;9.40;99.90
43627;DHT22;29217;52.586;13.442;2023-04-06T10:02:05;9.10;99.90
43627;DHT22;29217;52.586;13.442;2023-04-06T10:04:41;9.20;99.90
43627;DHT22;29217;52.586;13.442;2023-04-06T10:07:09;9.30;99.90
43627;DHT22;29217;52.586;13.442;2023-04-06T10:09:37;9.60;99.90
43627;DHT22;29217;52.586;13.442;2023-04-06T10:12:06;9.80;99.90
43627;DHT22;29217;52.586;13.442;2023-04-06T10:14:35;9.90;99.90
43627;DHT22;29217;52.586;13.442;2023-04-06T10:17:03;10.10;99.90
43627;DHT22;29217;52.586;13.442;2023-04-06T10:22:29;10.40;99.90
43627;DHT22;29217;52.586;13.442;2023-04-06T10:24:56;10.50;99.90
43627;DHT22;29217;52.586;13.442;2023-04-06T10:27:29;10.70;99.90
43627;DHT22;29217;52.586;13.442;2023-04-06T10:30:04;10.80;99.90
43627;DHT22;29217;52.586;13.442;2023-04-06T10:32:37;10.70;99.90
43627;DHT22;29217;52.586;13.442;2023-04-06T10:35:10;10.60;99.90
43627;DHT22;29217;52.586;13.442;2023-04-06T10:38:08;10.40;99.90
43627;DHT22;29217;52.586;13.442;2023-04-06T10:40:38;10.40;99.90
43627;DHT22;29217;52.586;13.442;2023-04-06T10:43:12;10.50;99.90
43627;DHT22;29217;52.586;13.442;2023-04-06T10:45:38;10.60;99.90
43627;DHT22;29217;52.586;13.442;2023-04-06T10:48:17;10.80;99.90
43627;DHT22;29217;52.586;13.442;2023-04-06T10:50:47;11.00;99.90
43627;DHT22;29217;52.586;13.442;2023-04-06T10:53:21;11.10;99.90
43627;DHT22;29217;52.586;13.442;2023-04-06T10:55:49;11.10;99.90
43627;DHT22;29217;52.586;13.442;2023-04-06T10:58:15;11.40;99.90
43627;DHT22;29217;52.586;13.442;2023-04-06T11:00:48;11.40;99.90
43627;DHT22;29217;52.586;13.442;2023-04-06T11:03:14;11.40;99.90
43627;DHT22;29217;52.586;13.442;2023-04-06T11:05:48;11.60;99.90
43627;DHT22;29217;52.586;13.442;2023-04-06T11:08:26;11.60;99.90
43627;DHT22;29217;52.586;13.442;2023-04-06T11:11:03;11.50;99.90
43627;DHT22;29217;52.586;13.442;2023-04-06T11:13:49;11.50;99.90
43627;DHT22;29217;52.586;13.442;2023-04-06T11:18:56;11.30;99.90
43627;DHT22;29217;52.586;13.442;2023-04-06T11:21:41;11.10;99.90
43627;DHT22;29217;52.586;13.442;2023-04-06T11:24:23;11.00;99.90
43627;DHT22;29217;52.586;13.442;2023-04-06T11:26:50;11.10;99.90
43627;DHT22;29217;52.586;13.442;2023-04-06T11:29:25;11.20;99.90
43627;DHT22;29217;52.586;13.442;2023-04-06T11:31:53;11.30;99.90
43627;DHT22;29217;52.586;13.442;2023-04-06T11:34:24;11.30;99.90
43627;DHT22;29217;52.586;13.442;2023-04-06T11:36:56;11.60;99.90
43627;DHT22;29217;52.586;13.442;2023-04-06T11:39:24;11.90;99.90
43627;DHT22;29217;52.586;13.442;2023-04-06T11:41:59;12.30;99.90
43627;DHT22;29217;52.586;13.442;2023-04-06T11:44:35;12.80;99.90
43627;DHT22;29217;52.586;13.442;2023-04-06T11:47:06;13.30;99.90
43627;DHT22;29217;52.586;13.442;2023-04-06T11:49:32;14.40;99.90
43627;DHT22;29217;52.586;13.442;2023-04-06T11:51:59;14.90;99.90
43627;DHT22;29217;52.586;13.442;2023-04-06T11:54:36;14.50;99.90
43627;DHT22;29217;52.586;13.442;2023-04-06T11:57:03;14.70;99.90
43627;DHT22;29217;52.586;13.442;2023-04-06T11:59:29;14.80;99.90
43627;DHT22;29217;52.586;13.442;2023-04-06T12:01:57;14.10;99.90
43627;DHT22;29217;52.586;13.442;2023-04-06T12:04:23;14.00;99.90
43627;DHT22;29217;52.586;13.442;2023-04-06T12:06:48;13.40;99.90
43627;DHT22;29217;52.586;13.442;2023-04-06T12:09:17;13.10;99.90
43627;DHT22;29217;52.586;13.442;2023-04-06T12:11:45;13.00;99.90
43627;DHT22;29217;52.586;13.442;2023-04-06T12:14:11;12.80;99.90
43627;DHT22;29217;52.586;13.442;2023-04-06T12:16:37;12.50;99.90
43627;DHT22;29217;52.586;13.442;2023-04-06T12:19:03;12.10;99.90
43627;DHT22;29217;52.586;13.442;2023-04-06T12:21:33;11.80;99.90
43627;DHT22;29217;52.586;13.442;2023-04-06T12:24:00;11.60;99.90
43627;DHT22;29217;52.586;13.442;2023-04-06T12:26:27;11.50;99.90
43627;DHT22;29217;52.586;13.442;2023-04-06T12:28:52;11.60;99.90
43627;DHT22;29217;52.586;13.442;2023-04-06T12:31:22;12.10;99.90
43627;DHT22;29217;52.586;13.442;2023-04-06T12:33:49;13.20;99.90
43627;DHT22;29217;52.586;13.442;2023-04-06T12:36:17;14.20;99.90
43627;DHT22;29217;52.586;13.442;2023-04-06T12:38:50;14.80;99.90
43627;DHT22;29217;52.586;13.442;2023-04-06T12:41:17;15.00;99.90
43627;DHT22;29217;52.586;13.442;2023-04-06T12:43:43;15.20;99.90
43627;DHT22;29217;52.586;13.442;2023-04-06T12:46:09;15.30;99.90
43627;DHT22;29217;52.586;13.442;2023-04-06T12:48:35;15.30;99.90
43627;DHT22;29217;52.586;13.442;2023-04-06T12:51:03;15.00;99.90
43627;DHT22;29217;52.586;13.442;2023-04-06T12:53:30;14.60;99.90
43627;DHT22;29217;52.586;13.442;2023-04-06T12:55:56;14.70;99.90
43627;DHT22;29217;52.586;13.442;2023-04-06T12:58:23;14.30;99.90
43627;DHT22;29217;52.586;13.442;2023-04-06T13:00:50;14.20;99.90
43627;DHT22;29217;52.586;13.442;2023-04-06T13:03:18;14.30;99.90
43627;DHT22;29217;52.586;13.442;2023-04-06T13:05:45;14.30;99.90
43627;DHT22;29217;52.586;13.442;2023-04-06T13:08:11;14.00;99.90
43627;DHT22;29217;52.586;13.442;2023-04-06T13:10:37;13.40;99.90
43627;DHT22;29217;52.586;13.442;2023-04-06T13:13:03;13.20;99.90
43627;DHT22;29217;52.586;13.442;2023-04-06T13:15:29;13.40;99.90
43627;DHT22;29217;52.586;13.442;2023-04-06T13:17:55;13.70;99.90
43627;DHT22;29217;52.586;13.442;2023-04-06T13:20:21;13.80;99.90
43627;DHT22;29217;52.586;13.442;2023-04-06T13:22:46;13.90;99.90
43627;DHT22;29217;52.586;13.442;2023-04-06T13:25:12;13.80;99.90
43627;DHT22;29217;52.586;13.442;2023-04-06T13:27:38;13.80;99.90
43627;DHT22;29217;52.586;13.442;2023-04-06T13:30:04;13.80;99.90
43627;DHT22;29217;52.586;13.442;2023-04-06T13:32:30;13.70;99.90
43627;DHT22;29217;52.586;13.442;2023-04-06T13:34:56;13.70;99.90
43627;DHT22;29217;52.586;13.442;2023-04-06T13:37:22;13.60;99.90
43627;DHT22;29217;52.586;13.442;2023-04-06T13:39:48;13.60;99.90
43627;DHT22;29217;52.586;13.442;2023-04-06T13:42:14;13.80;99.90
43627;DHT22;29217;52.586;13.442;2023-04-06T13:44:39;13.80;99.90
43627;DHT22;29217;52.586;13.442;2023-04-06T13:47:05;13.40;99.90
43627;DHT22;29217;52.586;13.442;2023-04-06T13:49:31;13.40;99.90
43627;DHT22;29217;52.586;13.442;2023-04-06T13:51:58;13.20;99.90
43627;DHT22;29217;52.586;13.442;2023-04-06T13:54:23;13.20;99.90
43627;DHT22;29217;52.586;13.442;2023-04-06T13:56:49;13.20;99.90
43627;DHT22;29217;52.586;13.442;2023-04-06T13:59:14;13.40;99.90
43627;DHT22;29217;52.586;13.442;2023-04-06T14:01:40;13.60;99.90
43627;DHT22;29217;52.586;13.442;2023-04-06T14:04:06;13.90;99.90
43627;DHT22;29217;52.586;13.442;2023-04-06T14:06:31;14.10;99.90
43627;DHT22;29217;52.586;13.442;2023-04-06T14:08:57;14.50;99.90
43627;DHT22;29217;52.586;13.442;2023-04-06T14:11:23;14.40;99.90
43627;DHT22;29217;52.586;13.442;2023-04-06T14:13:49;14.20;99.90
43627;DHT22;29217;52.586;13.442;2023-04-06T14:16:14;14.00;99.90
43627;DHT22;29217;52.586;13.442;2023-04-06T14:18:40;13.80;99.90
43627;DHT22;29217;52.586;13.442;2023-04-06T14:21:06;13.60;99.90
43627;DHT22;29217;52.586;13.442;2023-04-06T14:23:31;13.60;99.90
43627;DHT22;29217;52.586;13.442;2023-04-06T14:26:04;13.90;99.90
43627;DHT22;29217;52.586;13.442;2023-04-06T14:28:34;14.00;99.90
43627;DHT22;29217;52.586;13.442;2023-04-06T14:31:08;14.00;99.90
43627;DHT22;29217;52.586;13.442;2023-04-06T14:33:34;14.40;99.90
43627;DHT22;29217;52.586;13.442;2023-04-06T14:36:03;14.50;99.90
43627;DHT22;29217;52.586;13.442;2023-04-06T14:38:28;14.30;99.90
43627;DHT22;29217;52.586;13.442;2023-04-06T14:40:54;14.40;99.90
43627;DHT22;29217;52.586;13.442;2023-04-06T14:43:21;14.50;99.90
43627;DHT22;29217;52.586;13.442;2023-04-06T14:45:47;14.40;99.90
43627;DHT22;29217;52.586;13.442;2023-04-06T14:48:12;14.00;99.90
43627;DHT22;29217;52.586;13.442;2023-04-06T14:50:39;13.90;99.90
43627;DHT22;29217;52.586;13.442;2023-04-06T14:53:05;13.80;99.90
43627;DHT22;29217;52.586;13.442;2023-04-06T14:55:31;13.70;99.90
43627;DHT22;29217;52.586;13.442;2023-04-06T14:57:59;13.90;99.90
43627;DHT22;29217;52.586;13.442;2023-04-06T15:00:25;14.10;99.90
43627;DHT22;29217;52.586;13.442;2023-04-06T15:02:50;14.40;99.90
43627;DHT22;29217;52.586;13.442;2023-04-06T15:05:16;14.50;99.90
43627;DHT22;29217;52.586;13.442;2023-04-06T15:07:41;14.60;99.90
43627;DHT22;29217;52.586;13.442;2023-04-06T15:10:08;14.30;99.90
43627;DHT22;29217;52.586;13.442;2023-04-06T15:12:35;14.10;99.90
43627;DHT22;29217;52.586;13.442;2023-04-06T15:15:01;13.70;99.90
43627;DHT22;29217;52.586;13.442;2023-04-06T15:17:27;13.40;99.90
43627;DHT22;29217;52.586;13.442;2023-04-06T15:19:52;13.30;99.90
43627;DHT22;29217;52.586;13.442;2023-04-06T15:22:19;13.20;99.90
43627;DHT22;29217;52.586;13.442;2023-04-06T15:24:44;13.00;99.90
43627;DHT22;29217;52.586;13.442;2023-04-06T15:27:10;13.00;99.90
43627;DHT22;29217;52.586;13.442;2023-04-06T15:29:36;12.90;99.90